sensor_id;sensor_type;location;lat;lon;timestamp;temperature;humidity
8539;DHT22;4307;53.868;11.680;2023-02-19T00:00:59;3.90;99.90
8539;DHT22;4307;53.868;11.680;2023-02-19T00:03:28;3.90;99.90
8539;DHT22;4307;53.868;11.680;2023-02-19T00:05:54;3.90;99.90
8539;DHT22;4307;53.868;11.680;2023-02-19T00:08:21;3.90;99.90
8539;DHT22;4307;53.868;11.680;2023-02-19T00:10:47;3.90;99.90
8539;DHT22;4307;53.868;11.680;2023-02-19T00:13:14;3.90;99.90
8539;DHT22;4307;53.868;11.680;2023-02-19T00:15:41;3.80;99.90
8539;DHT22;4307;53.868;11.680;2023-02-19T00:18:09;3.80;99.90
8539;DHT22;4307;53.868;11.680;2023-02-19T00:20:35;3.80;99.90
8539;DHT22;4307;53.868;11.680;2023-02-19T00:23:02;3.80;99.90
8539;DHT22;4307;53.868;11.680;2023-02-19T00:25:29;3.70;99.90
8539;DHT22;4307;53.868;11.680;2023-02-19T00:27:55;3.80;99.90
8539;DHT22;4307;53.868;11.680;2023-02-19T00:30:22;3.80;99.90
8539;DHT22;4307;53.868;11.680;2023-02-19T00:32:49;3.80;99.90
8539;DHT22;4307;53.868;11.680;2023-02-19T00:35:17;3.80;99.90
8539;DHT22;4307;53.868;11.680;2023-02-19T00:37:44;3.80;99.90
8539;DHT22;4307;53.868;11.680;2023-02-19T00:40:11;3.80;99.90
8539;DHT22;4307;53.868;11.680;2023-02-19T00:42:37;3.90;99.90
8539;DHT22;4307;53.868;11.680;2023-02-19T00:45:04;3.80;99.90
8539;DHT22;4307;53.868;11.680;2023-02-19T00:47:31;3.80;99.90
8539;DHT22;4307;53.868;11.680;2023-02-19T00:49:58;3.90;99.90
8539;DHT22;4307;53.868;11.680;2023-02-19T00:52:26;3.90;99.90
8539;DHT22;4307;53.868;11.680;2023-02-19T00:54:52;3.90;99.90
8539;DHT22;4307;53.868;11.680;2023-02-19T00:57:19;3.90;99.90
8539;DHT22;4307;53.868;11.680;2023-02-19T00:59:45;3.80;99.90
8539;DHT22;4307;53.868;11.680;2023-02-19T01:02:12;3.90;99.90
8539;DHT22;4307;53.868;11.680;2023-02-19T01:04:39;3.90;99.90
8539;DHT22;4307;53.868;11.680;2023-02-19T01:07:05;3.90;99.90
8539;DHT22;4307;53.868;11.680;2023-02-19T01:09:33;3.90;99.90
8539;DHT22;4307;53.868;11.680;2023-02-19T01:12:00;4.00;99.90
8539;DHT22;4307;53.868;11.680;2023-02-19T01:14:27;4.00;99.90
8539;DHT22;4307;53.868;11.680;2023-02-19T01:16:53;4.00;99.90
8539;DHT22;4307;53.868;11.680;2023-02-19T01:19:20;4.00;99.90
8539;DHT22;4307;53.868;11.680;2023-02-19T01:21:46;4.00;99.90
8539;DHT22;4307;53.868;11.680;2023-02-19T01:24:13;4.10;99.90
8539;DHT22;4307;53.868;11.680;2023-02-19T01:26:42;4.10;99.90
8539;DHT22;4307;53.868;11.680;2023-02-19T01:29:09;4.10;99.90
8539;DHT22;4307;53.868;11.680;2023-02-19T01:31:36;4.10;99.90
8539;DHT22;4307;53.868;11.680;2023-02-19T01:34:05;4.10;99.90
8539;DHT22;4307;53.868;11.680;2023-02-19T01:36:32;4.20;99.90
8539;DHT22;4307;53.868;11.680;2023-02-19T01:39:00;4.20;99.90
8539;DHT22;4307;53.868;11.680;2023-02-19T01:41:28;4.20;99.90
8539;DHT22;4307;53.868;11.680;2023-02-19T01:43:59;4.20;99.90
8539;DHT22;4307;53.868;11.680;2023-02-19T01:46:27;4.20;99.90
8539;DHT22;4307;53.868;11.680;2023-02-19T01:48:56;4.20;99.90
8539;DHT22;4307;53.868;11.680;2023-02-19T01:51:24;4.30;99.90
8539;DHT22;4307;53.868;11.680;2023-02-19T01:53:54;4.30;99.90
8539;DHT22;4307;53.868;11.680;2023-02-19T01:56:22;4.30;99.90
8539;DHT22;4307;53.868;11.680;2023-02-19T01:58:51;4.30;99.90
8539;DHT22;4307;53.868;11.680;2023-02-19T02:01:20;4.30;99.90
8539;DHT22;4307;53.868;11.680;2023-02-19T02:03:48;4.30;99.90
8539;DHT22;4307;53.868;11.680;2023-02-19T02:06:18;4.30;99.90
8539;DHT22;4307;53.868;11.680;2023-02-19T02:08:48;4.30;99.90
8539;DHT22;4307;53.868;11.680;2023-02-19T02:11:33;4.40;99.90
8539;DHT22;4307;53.868;11.680;2023-02-19T02:14:01;4.40;99.90
8539;DHT22;4307;53.868;11.680;2023-02-19T02:16:37;4.40;99.90
8539;DHT22;4307;53.868;11.680;2023-02-19T02:19:19;4.40;99.90
8539;DHT22;4307;53.868;11.680;2023-02-19T02:22:00;4.40;99.90
8539;DHT22;4307;53.868;11.680;2023-02-19T02:24:58;4.50;99.90
8539;DHT22;4307;53.868;11.680;2023-02-19T02:27:37;4.50;99.90
8539;DHT22;4307;53.868;11.680;2023-02-19T02:30:22;4.50;99.90
8539;DHT22;4307;53.868;11.680;2023-02-19T02:32:55;4.50;99.90
8539;DHT22;4307;53.868;11.680;2023-02-19T02:35:25;4.50;99.90
8539;DHT22;4307;53.868;11.680;2023-02-19T02:37:55;4.50;99.90
8539;DHT22;4307;53.868;11.680;2023-02-19T02:40:22;4.60;99.90
8539;DHT22;4307;53.868;11.680;2023-02-19T02:42:49;4.60;99.90
8539;DHT22;4307;53.868;11.680;2023-02-19T02:45:29;4.60;99.90
8539;DHT22;4307;53.868;11.680;2023-02-19T02:48:13;4.60;99.90
8539;DHT22;4307;53.868;11.680;2023-02-19T02:50:45;4.70;99.90
8539;DHT22;4307;53.868;11.680;2023-02-19T02:53:17;4.70;99.90
8539;DHT22;4307;53.868;11.680;2023-02-19T02:56:02;4.70;99.90
8539;DHT22;4307;53.868;11.680;2023-02-19T02:58:31;4.70;99.90
8539;DHT22;4307;53.868;11.680;2023-02-19T03:01:03;4.70;99.90
8539;DHT22;4307;53.868;11.680;2023-02-19T03:03:53;4.70;99.90
8539;DHT22;4307;53.868;11.680;2023-02-19T03:06:21;4.80;99.90
8539;DHT22;4307;53.868;11.680;2023-02-19T03:08:53;4.80;99.90
8539;DHT22;4307;53.868;11.680;2023-02-19T03:11:22;4.80;99.90
8539;DHT22;4307;53.868;11.680;2023-02-19T03:14:10;4.80;99.90
8539;DHT22;4307;53.868;11.680;2023-02-19T03:16:57;4.80;99.90
8539;DHT22;4307;53.868;11.680;2023-02-19T03:19:46;4.80;99.90
8539;DHT22;4307;53.868;11.680;2023-02-19T03:22:18;4.80;99.90
8539;DHT22;4307;53.868;11.680;2023-02-19T03:24:55;4.80;99.90
8539;DHT22;4307;53.868;11.680;2023-02-19T03:27:42;4.80;99.90
8539;DHT22;4307;53.868;11.680;2023-02-19T03:30:15;4.90;99.90
8539;DHT22;4307;53.868;11.680;2023-02-19T03:32:47;4.90;99.90
8539;DHT22;4307;53.868;11.680;2023-02-19T03:35:18;4.90;99.90
8539;DHT22;4307;53.868;11.680;2023-02-19T03:37:51;4.90;99.90
8539;DHT22;4307;53.868;11.680;2023-02-19T03:40:21;4.90;99.90
8539;DHT22;4307;53.868;11.680;2023-02-19T03:42:57;4.90;99.90
8539;DHT22;4307;53.868;11.680;2023-02-19T03:45:32;4.90;99.90
8539;DHT22;4307;53.868;11.680;2023-02-19T03:48:19;4.90;99.90
8539;DHT22;4307;53.868;11.680;2023-02-19T03:50:50;4.90;99.90
8539;DHT22;4307;53.868;11.680;2023-02-19T03:53:25;4.90;99.90
8539;DHT22;4307;53.868;11.680;2023-02-19T03:56:03;4.90;99.90
8539;DHT22;4307;53.868;11.680;2023-02-19T03:58:36;4.90;99.90
8539;DHT22;4307;53.868;11.680;2023-02-19T04:01:07;4.90;99.90
8539;DHT22;4307;53.868;11.680;2023-02-19T04:03:39;4.90;99.90
8539;DHT22;4307;53.868;11.680;2023-02-19T04:06:10;4.90;99.90
8539;DHT22;4307;53.868;11.680;2023-02-19T04:08:39;4.90;99.90
8539;DHT22;4307;53.868;11.680;2023-02-19T04:11:09;4.90;99.90
8539;DHT22;4307;53.868;11.680;2023-02-19T04:13:40;4.90;99.90
8539;DHT22;4307;53.868;11.680;2023-02-19T04:16:13;4.90;99.90
8539;DHT22;4307;53.868;11.680;2023-02-19T04:18:46;4.90;99.90
8539;DHT22;4307;53.868;11.680;2023-02-19T04:21:15;4.90;99.90
8539;DHT22;4307;53.868;11.680;2023-02-19T04:23:43;4.90;99.90
8539;DHT22;4307;53.868;11.680;2023-02-19T04:26:11;4.80;99.90
8539;DHT22;4307;53.868;11.680;2023-02-19T04:28:39;4.80;99.90
8539;DHT22;4307;53.868;11.680;2023-02-19T04:31:07;4.80;99.90
8539;DHT22;4307;53.868;11.680;2023-02-19T04:33:34;4.80;99.90
8539;DHT22;4307;53.868;11.680;2023-02-19T04:36:02;4.80;99.90
8539;DHT22;4307;53.868;11.680;2023-02-19T04:38:29;4.80;99.90
8539;DHT22;4307;53.868;11.680;2023-02-19T04:40:56;4.80;99.90
8539;DHT22;4307;53.868;11.680;2023-02-19T04:43:23;4.80;99.90
8539;DHT22;4307;53.868;11.680;2023-02-19T04:45:49;4.80;99.90
8539;DHT22;4307;53.868;11.680;2023-02-19T04:48:16;4.80;99.90
8539;DHT22;4307;53.868;11.680;2023-02-19T04:50:43;4.80;99.90
8539;DHT22;4307;53.868;11.680;2023-02-19T04:53:10;4.70;99.90
8539;DHT22;4307;53.868;11.680;2023-02-19T04:55:37;4.80;99.90
8539;DHT22;4307;53.868;11.680;2023-02-19T04:58:04;4.70;99.90
8539;DHT22;4307;53.868;11.680;2023-02-19T05:00:31;4.70;99.90
8539;DHT22;4307;53.868;11.680;2023-02-19T05:02:59;4.70;99.90
8539;DHT22;4307;53.868;11.680;2023-02-19T05:05:26;4.70;99.90
8539;DHT22;4307;53.868;11.680;2023-02-19T05:07:53;4.70;99.90
8539;DHT22;4307;53.868;11.680;2023-02-19T05:10:21;4.60;99.90
8539;DHT22;4307;53.868;11.680;2023-02-19T05:12:47;4.60;99.90
8539;DHT22;4307;53.868;11.680;2023-02-19T05:15:14;4.60;99.90
8539;DHT22;4307;53.868;11.680;2023-02-19T05:17:41;4.50;99.90
8539;DHT22;4307;53.868;11.680;2023-02-19T05:20:08;4.60;99.90
8539;DHT22;4307;53.868;11.680;2023-02-19T05:22:35;4.50;99.90
8539;DHT22;4307;53.868;11.680;2023-02-19T05:25:01;4.50;99.90
8539;DHT22;4307;53.868;11.680;2023-02-19T05:27:31;4.50;99.90
8539;DHT22;4307;53.868;11.680;2023-02-19T05:29:57;4.50;99.90
8539;DHT22;4307;53.868;11.680;2023-02-19T05:32:24;4.50;99.90
8539;DHT22;4307;53.868;11.680;2023-02-19T05:34:51;4.50;99.90
8539;DHT22;4307;53.868;11.680;2023-02-19T05:37:17;4.40;99.90
8539;DHT22;4307;53.868;11.680;2023-02-19T05:39:44;4.50;99.90
8539;DHT22;4307;53.868;11.680;2023-02-19T05:42:12;4.40;99.90
8539;DHT22;4307;53.868;11.680;2023-02-19T05:44:41;4.40;99.90
8539;DHT22;4307;53.868;11.680;2023-02-19T05:47:07;4.40;99.90
8539;DHT22;4307;53.868;11.680;2023-02-19T05:49:34;4.40;99.90
8539;DHT22;4307;53.868;11.680;2023-02-19T05:52:01;4.40;99.90
8539;DHT22;4307;53.868;11.680;2023-02-19T05:54:27;4.40;99.90
8539;DHT22;4307;53.868;11.680;2023-02-19T05:56:54;4.30;99.90
8539;DHT22;4307;53.868;11.680;2023-02-19T05:59:23;4.30;99.90
8539;DHT22;4307;53.868;11.680;2023-02-19T06:01:52;4.30;99.90
8539;DHT22;4307;53.868;11.680;2023-02-19T06:04:19;4.30;99.90
8539;DHT22;4307;53.868;11.680;2023-02-19T06:06:46;4.30;99.90
8539;DHT22;4307;53.868;11.680;2023-02-19T06:09:13;4.30;99.90
8539;DHT22;4307;53.868;11.680;2023-02-19T06:11:40;4.30;99.90
8539;DHT22;4307;53.868;11.680;2023-02-19T06:14:08;4.30;99.90
8539;DHT22;4307;53.868;11.680;2023-02-19T06:16:36;4.30;99.90
8539;DHT22;4307;53.868;11.680;2023-02-19T06:19:04;4.30;99.90
8539;DHT22;4307;53.868;11.680;2023-02-19T06:21:31;4.30;99.90
8539;DHT22;4307;53.868;11.680;2023-02-19T06:23:58;4.30;99.90
8539;DHT22;4307;53.868;11.680;2023-02-19T06:26:24;4.30;99.90
8539;DHT22;4307;53.868;11.680;2023-02-19T06:28:52;4.30;99.90
8539;DHT22;4307;53.868;11.680;2023-02-19T06:31:20;4.20;99.90
8539;DHT22;4307;53.868;11.680;2023-02-19T06:33:47;4.20;99.90
8539;DHT22;4307;53.868;11.680;2023-02-19T06:36:18;4.30;99.90
8539;DHT22;4307;53.868;11.680;2023-02-19T06:38:45;4.20;99.90
8539;DHT22;4307;53.868;11.680;2023-02-19T06:41:12;4.30;99.90
8539;DHT22;4307;53.868;11.680;2023-02-19T06:43:39;4.20;99.90
8539;DHT22;4307;53.868;11.680;2023-02-19T06:46:06;4.20;99.90
8539;DHT22;4307;53.868;11.680;2023-02-19T06:48:33;4.30;99.90
8539;DHT22;4307;53.868;11.680;2023-02-19T06:51:00;4.30;99.90
8539;DHT22;4307;53.868;11.680;2023-02-19T06:53:29;4.30;99.90
8539;DHT22;4307;53.868;11.680;2023-02-19T06:55:56;4.30;99.90
8539;DHT22;4307;53.868;11.680;2023-02-19T06:58:23;4.30;99.90
8539;DHT22;4307;53.868;11.680;2023-02-19T07:00:50;4.30;99.90
8539;DHT22;4307;53.868;11.680;2023-02-19T07:03:16;4.30;99.90
8539;DHT22;4307;53.868;11.680;2023-02-19T07:05:43;4.30;99.90
8539;DHT22;4307;53.868;11.680;2023-02-19T07:08:09;4.40;99.90
8539;DHT22;4307;53.868;11.680;2023-02-19T07:10:37;4.30;99.90
8539;DHT22;4307;53.868;11.680;2023-02-19T07:13:04;4.40;99.90
8539;DHT22;4307;53.868;11.680;2023-02-19T07:15:31;4.40;99.90
8539;DHT22;4307;53.868;11.680;2023-02-19T07:17:58;4.40;99.90
8539;DHT22;4307;53.868;11.680;2023-02-19T07:20:25;4.40;99.90
8539;DHT22;4307;53.868;11.680;2023-02-19T07:22:51;4.40;99.90
8539;DHT22;4307;53.868;11.680;2023-02-19T07:25:18;4.50;99.90
8539;DHT22;4307;53.868;11.680;2023-02-19T07:27:47;4.50;99.90
8539;DHT22;4307;53.868;11.680;2023-02-19T07:30:14;4.50;99.90
8539;DHT22;4307;53.868;11.680;2023-02-19T07:32:41;4.60;99.90
8539;DHT22;4307;53.868;11.680;2023-02-19T07:35:10;4.60;99.90
8539;DHT22;4307;53.868;11.680;2023-02-19T07:37:36;4.60;99.90
8539;DHT22;4307;53.868;11.680;2023-02-19T07:40:04;4.70;99.90
8539;DHT22;4307;53.868;11.680;2023-02-19T07:42:31;4.70;99.90
8539;DHT22;4307;53.868;11.680;2023-02-19T07:44:59;4.80;99.90
8539;DHT22;4307;53.868;11.680;2023-02-19T07:47:25;4.80;99.90
8539;DHT22;4307;53.868;11.680;2023-02-19T07:49:52;4.90;99.90
8539;DHT22;4307;53.868;11.680;2023-02-19T07:52:18;4.90;99.90
8539;DHT22;4307;53.868;11.680;2023-02-19T07:54:45;5.00;99.90
8539;DHT22;4307;53.868;11.680;2023-02-19T07:57:12;5.10;99.90
8539;DHT22;4307;53.868;11.680;2023-02-19T07:59:38;5.10;99.90
8539;DHT22;4307;53.868;11.680;2023-02-19T08:02:13;5.20;99.90
8539;DHT22;4307;53.868;11.680;2023-02-19T08:04:58;5.30;99.90
8539;DHT22;4307;53.868;11.680;2023-02-19T08:07:29;5.40;99.90
8539;DHT22;4307;53.868;11.680;2023-02-19T08:09:56;5.50;99.90
8539;DHT22;4307;53.868;11.680;2023-02-19T08:12:54;5.60;99.90
8539;DHT22;4307;53.868;11.680;2023-02-19T08:15:38;5.80;99.90
8539;DHT22;4307;53.868;11.680;2023-02-19T08:18:06;6.10;99.90
8539;DHT22;4307;53.868;11.680;2023-02-19T08:20:33;6.40;99.90
8539;DHT22;4307;53.868;11.680;2023-02-19T08:22:59;6.70;99.90
8539;DHT22;4307;53.868;11.680;2023-02-19T08:25:26;6.80;99.90
8539;DHT22;4307;53.868;11.680;2023-02-19T08:27:53;7.10;99.90
8539;DHT22;4307;53.868;11.680;2023-02-19T08:30:20;7.30;99.90
8539;DHT22;4307;53.868;11.680;2023-02-19T08:32:46;7.40;99.90
8539;DHT22;4307;53.868;11.680;2023-02-19T08:35:15;7.50;99.90
8539;DHT22;4307;53.868;11.680;2023-02-19T08:37:41;7.50;99.90
8539;DHT22;4307;53.868;11.680;2023-02-19T08:40:09;7.50;99.90
8539;DHT22;4307;53.868;11.680;2023-02-19T08:42:35;7.60;99.90
8539;DHT22;4307;53.868;11.680;2023-02-19T08:45:03;7.60;99.90
8539;DHT22;4307;53.868;11.680;2023-02-19T08:47:29;7.60;99.90
8539;DHT22;4307;53.868;11.680;2023-02-19T08:49:56;7.60;99.90
8539;DHT22;4307;53.868;11.680;2023-02-19T08:52:24;7.60;99.90
8539;DHT22;4307;53.868;11.680;2023-02-19T08:54:51;7.60;99.90
8539;DHT22;4307;53.868;11.680;2023-02-19T08:57:17;7.60;99.90
8539;DHT22;4307;53.868;11.680;2023-02-19T08:59:44;7.60;99.90
8539;DHT22;4307;53.868;11.680;2023-02-19T09:02:11;7.80;99.90
8539;DHT22;4307;53.868;11.680;2023-02-19T09:04:37;7.80;99.90
8539;DHT22;4307;53.868;11.680;2023-02-19T09:07:04;7.70;99.90
8539;DHT22;4307;53.868;11.680;2023-02-19T09:09:35;7.80;99.90
8539;DHT22;4307;53.868;11.680;2023-02-19T09:12:03;7.80;99.90
8539;DHT22;4307;53.868;11.680;2023-02-19T09:14:30;7.90;99.90
8539;DHT22;4307;53.868;11.680;2023-02-19T09:16:57;8.10;99.90
8539;DHT22;4307;53.868;11.680;2023-02-19T09:19:24;8.30;99.90
8539;DHT22;4307;53.868;11.680;2023-02-19T09:21:51;8.40;99.90
8539;DHT22;4307;53.868;11.680;2023-02-19T09:24:18;8.60;99.90
8539;DHT22;4307;53.868;11.680;2023-02-19T09:26:49;8.70;99.90
8539;DHT22;4307;53.868;11.680;2023-02-19T09:29:16;8.90;99.90
8539;DHT22;4307;53.868;11.680;2023-02-19T09:31:42;9.00;99.90
8539;DHT22;4307;53.868;11.680;2023-02-19T09:34:09;9.10;99.90
8539;DHT22;4307;53.868;11.680;2023-02-19T09:36:36;9.20;99.90
8539;DHT22;4307;53.868;11.680;2023-02-19T09:39:04;9.30;99.90
8539;DHT22;4307;53.868;11.680;2023-02-19T09:41:33;9.40;99.90
8539;DHT22;4307;53.868;11.680;2023-02-19T09:44:03;9.40;99.90
8539;DHT22;4307;53.868;11.680;2023-02-19T09:46:35;9.60;99.90
8539;DHT22;4307;53.868;11.680;2023-02-19T09:49:06;9.50;99.90
8539;DHT22;4307;53.868;11.680;2023-02-19T09:51:38;9.50;99.90
8539;DHT22;4307;53.868;11.680;2023-02-19T09:54:13;9.50;99.90
8539;DHT22;4307;53.868;11.680;2023-02-19T09:56:41;9.50;99.90
8539;DHT22;4307;53.868;11.680;2023-02-19T09:59:17;9.50;99.90
8539;DHT22;4307;53.868;11.680;2023-02-19T10:01:47;9.60;99.90
8539;DHT22;4307;53.868;11.680;2023-02-19T10:04:14;9.70;99.90
8539;DHT22;4307;53.868;11.680;2023-02-19T10:06:41;9.80;99.90
8539;DHT22;4307;53.868;11.680;2023-02-19T10:09:18;9.90;99.90
8539;DHT22;4307;53.868;11.680;2023-02-19T10:11:48;10.10;99.90
8539;DHT22;4307;53.868;11.680;2023-02-19T10:14:18;10.30;99.90
8539;DHT22;4307;53.868;11.680;2023-02-19T10:16:48;10.40;99.90
8539;DHT22;4307;53.868;11.680;2023-02-19T10:19:15;10.40;99.90
8539;DHT22;4307;53.868;11.680;2023-02-19T10:21:43;10.40;99.90
8539;DHT22;4307;53.868;11.680;2023-02-19T10:24:15;10.40;99.90
8539;DHT22;4307;53.868;11.680;2023-02-19T10:26:45;10.40;99.90
8539;DHT22;4307;53.868;11.680;2023-02-19T10:29:12;10.40;99.90
8539;DHT22;4307;53.868;11.680;2023-02-19T10:31:40;10.40;99.90
8539;DHT22;4307;53.868;11.680;2023-02-19T10:34:16;10.40;99.90
8539;DHT22;4307;53.868;11.680;2023-02-19T10:36:46;10.40;99.90
8539;DHT22;4307;53.868;11.680;2023-02-19T10:39:32;10.40;99.90
8539;DHT22;4307;53.868;11.680;2023-02-19T10:42:02;10.50;99.90
8539;DHT22;4307;53.868;11.680;2023-02-19T10:44:30;10.50;99.90
8539;DHT22;4307;53.868;11.680;2023-02-19T10:47:02;10.60;99.90
8539;DHT22;4307;53.868;11.680;2023-02-19T10:49:32;10.70;99.90
8539;DHT22;4307;53.868;11.680;2023-02-19T10:52:11;10.80;99.90
8539;DHT22;4307;53.868;11.680;2023-02-19T10:54:42;10.80;99.90
8539;DHT22;4307;53.868;11.680;2023-02-19T10:57:26;10.70;99.90
8539;DHT22;4307;53.868;11.680;2023-02-19T10:59:59;10.80;99.90
8539;DHT22;4307;53.868;11.680;2023-02-19T11:02:29;10.80;99.90
8539;DHT22;4307;53.868;11.680;2023-02-19T11:05:10;10.70;99.90
8539;DHT22;4307;53.868;11.680;2023-02-19T11:07:43;10.60;99.90
8539;DHT22;4307;53.868;11.680;2023-02-19T11:10:21;10.40;99.90
8539;DHT22;4307;53.868;11.680;2023-02-19T11:12:50;10.10;99.90
8539;DHT22;4307;53.868;11.680;2023-02-19T11:15:20;9.90;99.90
8539;DHT22;4307;53.868;11.680;2023-02-19T11:17:56;9.70;99.90
8539;DHT22;4307;53.868;11.680;2023-02-19T11:20:24;9.70;99.90
8539;DHT22;4307;53.868;11.680;2023-02-19T11:22:54;9.70;99.90
8539;DHT22;4307;53.868;11.680;2023-02-19T11:25:23;9.80;99.90
8539;DHT22;4307;53.868;11.680;2023-02-19T11:27:58;9.90;99.90
8539;DHT22;4307;53.868;11.680;2023-02-19T11:30:36;10.10;99.90
8539;DHT22;4307;53.868;11.680;2023-02-19T11:33:20;10.20;99.90
8539;DHT22;4307;53.868;11.680;2023-02-19T11:35:48;10.30;99.90
8539;DHT22;4307;53.868;11.680;2023-02-19T11:38:16;10.30;99.90
8539;DHT22;4307;53.868;11.680;2023-02-19T11:40:46;10.30;99.90
8539;DHT22;4307;53.868;11.680;2023-02-19T11:43:49;10.30;99.90
8539;DHT22;4307;53.868;11.680;2023-02-19T11:46:28;10.30;99.90
8539;DHT22;4307;53.868;11.680;2023-02-19T11:49:07;10.20;99.90
8539;DHT22;4307;53.868;11.680;2023-02-19T11:51:44;10.00;99.90
8539;DHT22;4307;53.868;11.680;2023-02-19T11:54:29;10.10;99.90
8539;DHT22;4307;53.868;11.680;2023-02-19T11:57:07;10.10;99.90
8539;DHT22;4307;53.868;11.680;2023-02-19T11:59:41;10.10;99.90
8539;DHT22;4307;53.868;11.680;2023-02-19T12:02:25;10.20;99.90
8539;DHT22;4307;53.868;11.680;2023-02-19T12:05:02;10.30;99.90
8539;DHT22;4307;53.868;11.680;2023-02-19T12:10:48;10.30;99.90
8539;DHT22;4307;53.868;11.680;2023-02-19T12:13:22;10.20;99.90
8539;DHT22;4307;53.868;11.680;2023-02-19T12:16:03;10.20;99.90
8539;DHT22;4307;53.868;11.680;2023-02-19T12:18:52;10.30;99.90
8539;DHT22;4307;53.868;11.680;2023-02-19T12:24:38;10.30;99.90
8539;DHT22;4307;53.868;11.680;2023-02-19T12:27:18;10.20;99.90
8539;DHT22;4307;53.868;11.680;2023-02-19T12:29:57;10.20;99.90
8539;DHT22;4307;53.868;11.680;2023-02-19T12:32:38;10.20;99.90
8539;DHT22;4307;53.868;11.680;2023-02-19T12:35:29;10.30;99.90
8539;DHT22;4307;53.868;11.680;2023-02-19T12:38:09;10.40;99.90
8539;DHT22;4307;53.868;11.680;2023-02-19T12:40:45;10.50;99.90
8539;DHT22;4307;53.868;11.680;2023-02-19T12:43:18;10.50;99.90
8539;DHT22;4307;53.868;11.680;2023-02-19T12:45:48;10.50;99.90
8539;DHT22;4307;53.868;11.680;2023-02-19T12:48:24;10.60;99.90
8539;DHT22;4307;53.868;11.680;2023-02-19T12:50:56;10.50;99.90
8539;DHT22;4307;53.868;11.680;2023-02-19T12:53:32;10.30;99.90
8539;DHT22;4307;53.868;11.680;2023-02-19T12:56:05;10.20;99.90
8539;DHT22;4307;53.868;11.680;2023-02-19T12:58:37;10.20;99.90
8539;DHT22;4307;53.868;11.680;2023-02-19T13:01:07;10.20;99.90
8539;DHT22;4307;53.868;11.680;2023-02-19T13:03:39;10.30;99.90
8539;DHT22;4307;53.868;11.680;2023-02-19T13:06:11;10.40;99.90
8539;DHT22;4307;53.868;11.680;2023-02-19T13:08:45;10.50;99.90
8539;DHT22;4307;53.868;11.680;2023-02-19T13:11:16;10.50;99.90
8539;DHT22;4307;53.868;11.680;2023-02-19T13:13:47;10.50;99.90
8539;DHT22;4307;53.868;11.680;2023-02-19T13:16:17;10.50;99.90
8539;DHT22;4307;53.868;11.680;2023-02-19T13:18:47;10.50;99.90
8539;DHT22;4307;53.868;11.680;2023-02-19T13:21:16;10.40;99.90
8539;DHT22;4307;53.868;11.680;2023-02-19T13:24:09;10.30;99.90
8539;DHT22;4307;53.868;11.680;2023-02-19T13:26:44;10.30;99.90
8539;DHT22;4307;53.868;11.680;2023-02-19T13:29:29;10.40;99.90
8539;DHT22;4307;53.868;11.680;2023-02-19T13:32:16;10.60;99.90
8539;DHT22;4307;53.868;11.680;2023-02-19T13:35:08;10.80;99.90
8539;DHT22;4307;53.868;11.680;2023-02-19T13:37:37;11.00;99.90
8539;DHT22;4307;53.868;11.680;2023-02-19T13:40:18;11.30;99.90
8539;DHT22;4307;53.868;11.680;2023-02-19T13:42:51;11.50;99.90
8539;DHT22;4307;53.868;11.680;2023-02-19T13:45:22;11.60;99.90
8539;DHT22;4307;53.868;11.680;2023-02-19T13:47:58;11.80;99.90
8539;DHT22;4307;53.868;11.680;2023-02-19T13:50:26;12.00;99.90
8539;DHT22;4307;53.868;11.680;2023-02-19T13:52:54;12.10;99.90
8539;DHT22;4307;53.868;11.680;2023-02-19T13:55:49;12.40;99.90
8539;DHT22;4307;53.868;11.680;2023-02-19T14:04:51;13.40;98.60
8539;DHT22;4307;53.868;11.680;2023-02-19T14:10:58;13.90;97.50
8539;DHT22;4307;53.868;11.680;2023-02-19T14:13:57;14.30;97.00
8539;DHT22;4307;53.868;11.680;2023-02-19T14:16:49;14.50;96.10
8539;DHT22;4307;53.868;11.680;2023-02-19T14:25:41;15.10;94.40
8539;DHT22;4307;53.868;11.680;2023-02-19T14:28:29;15.50;93.80
8539;DHT22;4307;53.868;11.680;2023-02-19T14:30:59;15.70;93.20
8539;DHT22;4307;53.868;11.680;2023-02-19T14:33:30;15.70;92.70
8539;DHT22;4307;53.868;11.680;2023-02-19T14:36:01;15.50;92.20
8539;DHT22;4307;53.868;11.680;2023-02-19T14:38:35;15.40;91.70
8539;DHT22;4307;53.868;11.680;2023-02-19T14:41:03;15.20;91.30
8539;DHT22;4307;53.868;11.680;2023-02-19T14:43:33;14.80;90.90
8539;DHT22;4307;53.868;11.680;2023-02-19T14:46:03;14.40;90.70
8539;DHT22;4307;53.868;11.680;2023-02-19T14:48:35;14.20;90.90
8539;DHT22;4307;53.868;11.680;2023-02-19T14:51:06;14.30;90.80
8539;DHT22;4307;53.868;11.680;2023-02-19T14:53:40;14.40;90.80
8539;DHT22;4307;53.868;11.680;2023-02-19T14:56:17;14.50;90.40
8539;DHT22;4307;53.868;11.680;2023-02-19T14:59:05;14.40;90.00
8539;DHT22;4307;53.868;11.680;2023-02-19T15:01:31;13.90;89.80
8539;DHT22;4307;53.868;11.680;2023-02-19T15:03:58;13.40;90.30
8539;DHT22;4307;53.868;11.680;2023-02-19T15:06:25;12.90;90.20
8539;DHT22;4307;53.868;11.680;2023-02-19T15:08:56;12.50;90.10
8539;DHT22;4307;53.868;11.680;2023-02-19T15:11:26;12.10;89.70
8539;DHT22;4307;53.868;11.680;2023-02-19T15:13:56;11.70;89.60
8539;DHT22;4307;53.868;11.680;2023-02-19T15:16:25;11.40;89.60
8539;DHT22;4307;53.868;11.680;2023-02-19T15:18:53;11.10;89.50
8539;DHT22;4307;53.868;11.680;2023-02-19T15:21:22;10.80;89.50
8539;DHT22;4307;53.868;11.680;2023-02-19T15:23:50;10.60;89.50
8539;DHT22;4307;53.868;11.680;2023-02-19T15:26:21;10.40;89.50
8539;DHT22;4307;53.868;11.680;2023-02-19T15:28:58;10.20;89.60
8539;DHT22;4307;53.868;11.680;2023-02-19T15:31:25;10.00;89.70
8539;DHT22;4307;53.868;11.680;2023-02-19T15:33:52;9.80;90.40
8539;DHT22;4307;53.868;11.680;2023-02-19T15:36:29;9.70;90.50
8539;DHT22;4307;53.868;11.680;2023-02-19T15:38:59;9.60;90.60
8539;DHT22;4307;53.868;11.680;2023-02-19T15:41:28;9.50;90.80
8539;DHT22;4307;53.868;11.680;2023-02-19T15:44:12;9.30;90.90
8539;DHT22;4307;53.868;11.680;2023-02-19T15:46:43;9.30;91.10
8539;DHT22;4307;53.868;11.680;2023-02-19T15:49:14;9.20;91.20
8539;DHT22;4307;53.868;11.680;2023-02-19T15:51:46;9.10;91.40
8539;DHT22;4307;53.868;11.680;2023-02-19T15:54:25;9.00;91.50
8539;DHT22;4307;53.868;11.680;2023-02-19T15:56:54;9.00;91.80
8539;DHT22;4307;53.868;11.680;2023-02-19T15:59:27;8.90;91.90
8539;DHT22;4307;53.868;11.680;2023-02-19T16:01:56;8.80;92.00
8539;DHT22;4307;53.868;11.680;2023-02-19T16:04:23;8.80;92.20
8539;DHT22;4307;53.868;11.680;2023-02-19T16:06:52;8.70;92.30
8539;DHT22;4307;53.868;11.680;2023-02-19T16:09:21;8.60;92.50
8539;DHT22;4307;53.868;11.680;2023-02-19T16:11:49;8.60;92.60
8539;DHT22;4307;53.868;11.680;2023-02-19T16:14:22;8.60;92.90
8539;DHT22;4307;53.868;11.680;2023-02-19T16:16:52;8.50;93.00
8539;DHT22;4307;53.868;11.680;2023-02-19T16:19:24;8.50;93.20
8539;DHT22;4307;53.868;11.680;2023-02-19T16:21:53;8.40;93.20
8539;DHT22;4307;53.868;11.680;2023-02-19T16:24:27;8.20;93.30
8539;DHT22;4307;53.868;11.680;2023-02-19T16:26:56;8.10;93.80
8539;DHT22;4307;53.868;11.680;2023-02-19T16:29:25;8.00;93.70
8539;DHT22;4307;53.868;11.680;2023-02-19T16:31:56;7.90;93.90
8539;DHT22;4307;53.868;11.680;2023-02-19T16:34:38;7.70;94.10
8539;DHT22;4307;53.868;11.680;2023-02-19T16:37:33;7.60;94.30
8539;DHT22;4307;53.868;11.680;2023-02-19T16:43:23;7.20;95.00
8539;DHT22;4307;53.868;11.680;2023-02-19T16:45:50;7.10;95.30
8539;DHT22;4307;53.868;11.680;2023-02-19T16:48:20;7.00;95.40